Terminal Aerodrome Forecast
Issued by NWS

Home | Current Version | Previous Version | Text Only | Print | Product List | Glossary On
Versions: 1 2 3 4 5 6 7 8 9 10 11 12 13 14
000
FTUS44 KLIX 161700
TAFMCB
TAF
KMCB 161731Z 1618/1718 VRB04KT P6SM SCT030
     FM161900 VRB04KT P6SM VCTS BKN035CB
     FM170100 00000KT P6SM BKN040
     FM170800 00000KT P6SM SCT040
     FM171500 00000KT P6SM SCT250=

USA.gov is the U.S. government's official web portal to all federal, state and local government web resources and services.